createdAt,value
2023-05-03T00:01:54.687Z,100.00
2023-05-03T00:05:01.305Z,100.00
2023-05-03T00:08:07.186Z,100.00
2023-05-03T00:11:12.969Z,100.00
2023-05-03T00:14:18.867Z,100.00
2023-05-03T00:17:24.291Z,100.00
2023-05-03T00:20:29.806Z,100.00
2023-05-03T00:23:35.248Z,100.00
2023-05-03T00:26:42.008Z,100.00
2023-05-03T00:29:47.364Z,100.00
2023-05-03T00:32:53.038Z,100.00
2023-05-03T00:35:59.027Z,100.00
2023-05-03T00:39:04.322Z,100.00
2023-05-03T00:42:09.527Z,100.00
2023-05-03T00:45:14.967Z,100.00
2023-05-03T00:48:21.088Z,100.00
2023-05-03T00:51:28.187Z,100.00
2023-05-03T00:54:35.993Z,100.00
2023-05-03T00:57:42.106Z,100.00
2023-05-03T01:00:49.437Z,100.00
2023-05-03T01:03:57.354Z,100.00
2023-05-03T01:07:41.639Z,100.00
2023-05-03T01:11:08.158Z,100.00
2023-05-03T01:14:40.888Z,100.00
2023-05-03T01:17:52.098Z,100.00
2023-05-03T01:21:00.242Z,100.00
2023-05-03T01:24:22.760Z,100.00
2023-05-03T01:27:27.928Z,100.00
2023-05-03T01:30:35.890Z,100.00
2023-05-03T01:33:57.599Z,100.00
2023-05-03T01:37:04.849Z,100.00
2023-05-03T01:40:17.195Z,100.00
2023-05-03T01:43:23.978Z,100.00
2023-05-03T01:46:29.496Z,100.00
2023-05-03T01:49:35.446Z,100.00
2023-05-03T01:52:41.232Z,100.00
2023-05-03T01:55:47.195Z,100.00
2023-05-03T01:58:52.691Z,100.00
2023-05-03T02:01:58.520Z,100.00
2023-05-03T02:05:04.301Z,100.00
2023-05-03T02:08:09.610Z,100.00
2023-05-03T02:11:15.590Z,100.00
2023-05-03T02:14:21.454Z,100.00
2023-05-03T02:17:27.172Z,100.00
2023-05-03T02:20:36.765Z,100.00
2023-05-03T02:23:42.071Z,100.00
2023-05-03T02:26:47.438Z,100.00
2023-05-03T02:29:53.275Z,100.00
2023-05-03T02:33:00.204Z,100.00
2023-05-03T02:36:06.971Z,100.00
2023-05-03T02:39:13.292Z,100.00
2023-05-03T02:42:20.002Z,100.00
2023-05-03T02:45:26.341Z,100.00
2023-05-03T02:48:33.178Z,100.00
2023-05-03T02:51:39.336Z,100.00
2023-05-03T02:54:46.777Z,100.00
2023-05-03T02:57:53.437Z,100.00
2023-05-03T03:00:59.488Z,100.00
2023-05-03T03:04:08.538Z,100.00
2023-05-03T03:07:14.249Z,100.00
2023-05-03T03:10:19.849Z,100.00
2023-05-03T03:13:25.929Z,100.00
2023-05-03T03:16:31.473Z,100.00
2023-05-03T03:19:37.489Z,100.00
2023-05-03T03:22:45.853Z,100.00
2023-05-03T03:25:52.641Z,100.00
2023-05-03T03:28:58.504Z,100.00
2023-05-03T03:32:04.399Z,100.00
2023-05-03T03:35:11.190Z,100.00
2023-05-03T03:38:16.764Z,100.00
2023-05-03T03:41:29.825Z,100.00
2023-05-03T03:44:36.421Z,100.00
2023-05-03T03:47:41.660Z,100.00
2023-05-03T03:50:48.067Z,100.00
2023-05-03T03:53:53.982Z,100.00
2023-05-03T03:57:05.325Z,100.00
2023-05-03T04:00:13.010Z,100.00
2023-05-03T04:03:23.886Z,100.00
2023-05-03T04:06:29.689Z,100.00
2023-05-03T04:09:36.579Z,100.00
2023-05-03T04:12:42.701Z,100.00
2023-05-03T04:15:48.263Z,100.00
2023-05-03T04:18:54.008Z,100.00
2023-05-03T04:21:59.783Z,100.00
2023-05-03T04:25:06.134Z,100.00
2023-05-03T04:28:12.019Z,100.00
2023-05-03T04:31:22.266Z,100.00
2023-05-03T04:34:31.483Z,100.00
2023-05-03T04:37:40.300Z,100.00
2023-05-03T04:40:46.503Z,100.00
2023-05-03T04:43:52.491Z,100.00
2023-05-03T04:47:00.265Z,100.00
2023-05-03T04:50:09.385Z,100.00
2023-05-03T04:53:15.827Z,100.00
2023-05-03T04:56:28.024Z,100.00
2023-05-03T04:59:40.614Z,100.00
2023-05-03T05:02:47.047Z,100.00
2023-05-03T05:05:53.384Z,100.00
2023-05-03T05:08:59.249Z,100.00
2023-05-03T05:12:05.633Z,100.00
2023-05-03T05:15:16.215Z,100.00
2023-05-03T05:18:22.893Z,100.00
2023-05-03T05:21:29.627Z,100.00
2023-05-03T05:24:35.619Z,100.00
2023-05-03T05:27:41.698Z,100.00
2023-05-03T05:30:47.637Z,100.00
2023-05-03T05:33:53.360Z,100.00
2023-05-03T05:36:59.084Z,100.00
2023-05-03T05:40:08.152Z,100.00
2023-05-03T05:43:21.882Z,100.00
2023-05-03T05:46:28.315Z,100.00
2023-05-03T05:49:33.901Z,100.00
2023-05-03T05:52:39.710Z,100.00
2023-05-03T05:55:45.808Z,100.00
2023-05-03T05:58:51.968Z,100.00
2023-05-03T06:01:57.831Z,100.00
2023-05-03T06:05:07.569Z,100.00
2023-05-03T06:08:13.745Z,100.00
2023-05-03T06:11:19.125Z,100.00
2023-05-03T06:14:24.676Z,100.00
2023-05-03T06:17:30.705Z,100.00
2023-05-03T06:20:36.279Z,100.00
2023-05-03T06:23:42.062Z,100.00
2023-05-03T06:26:48.808Z,100.00
2023-05-03T06:29:55.804Z,100.00
2023-05-03T06:33:02.712Z,100.00
2023-05-03T06:36:09.805Z,100.00
2023-05-03T06:39:16.964Z,100.00
2023-05-03T06:42:22.206Z,100.00
2023-05-03T06:45:27.819Z,100.00
2023-05-03T06:48:33.342Z,100.00
2023-05-03T06:51:38.941Z,100.00
2023-05-03T06:54:44.707Z,100.00
2023-05-03T06:57:52.550Z,100.00
2023-05-03T07:00:58.256Z,100.00
2023-05-03T07:04:04.237Z,100.00
2023-05-03T07:07:09.843Z,100.00
2023-05-03T07:10:15.792Z,100.00
2023-05-03T07:13:21.305Z,100.00
2023-05-03T07:16:26.800Z,100.00
2023-05-03T07:19:32.246Z,100.00
2023-05-03T07:22:37.544Z,100.00
2023-05-03T07:25:43.794Z,100.00
2023-05-03T07:28:49.312Z,100.00
2023-05-03T07:31:54.948Z,100.00
2023-05-03T07:35:00.775Z,100.00
2023-05-03T07:38:06.358Z,100.00
2023-05-03T07:41:11.545Z,100.00
2023-05-03T07:44:17.768Z,100.00
2023-05-03T07:47:23.515Z,100.00
2023-05-03T07:50:29.216Z,100.00
2023-05-03T07:53:35.889Z,100.00
2023-05-03T07:56:41.311Z,100.00
2023-05-03T07:59:46.749Z,100.00
2023-05-03T08:02:52.485Z,100.00
2023-05-03T08:05:58.229Z,100.00
2023-05-03T08:09:05.002Z,100.00
2023-05-03T08:12:10.211Z,100.00
2023-05-03T08:15:15.747Z,100.00
2023-05-03T08:18:23.681Z,100.00
2023-05-03T08:21:30.875Z,100.00
2023-05-03T08:24:36.299Z,100.00
2023-05-03T08:27:41.839Z,100.00
2023-05-03T08:30:47.114Z,100.00
2023-05-03T08:33:52.115Z,100.00
2023-05-03T08:36:58.369Z,100.00
2023-05-03T08:40:06.568Z,100.00
2023-05-03T08:43:16.243Z,100.00
2023-05-03T08:46:22.741Z,100.00
2023-05-03T08:49:29.904Z,100.00
2023-05-03T08:52:35.558Z,100.00
2023-05-03T08:55:42.904Z,100.00
2023-05-03T08:58:48.728Z,100.00
2023-05-03T09:01:55.060Z,100.00
2023-05-03T09:05:01.126Z,100.00
2023-05-03T09:08:10.201Z,100.00
2023-05-03T09:11:28.106Z,100.00
2023-05-03T09:14:44.341Z,100.00
2023-05-03T09:18:16.294Z,100.00
2023-05-03T09:21:22.457Z,100.00
2023-05-03T09:24:28.246Z,100.00
2023-05-03T09:27:33.873Z,100.00
2023-05-03T09:30:39.825Z,100.00
2023-05-03T09:33:45.974Z,100.00
2023-05-03T09:36:51.247Z,100.00
2023-05-03T09:40:08.450Z,100.00
2023-05-03T09:43:18.148Z,100.00
2023-05-03T09:46:25.917Z,100.00
2023-05-03T09:49:37.128Z,100.00
2023-05-03T09:52:42.831Z,100.00
2023-05-03T09:55:51.168Z,100.00
2023-05-03T09:58:57.095Z,100.00
2023-05-03T10:02:07.897Z,100.00
2023-05-03T10:05:14.190Z,100.00
2023-05-03T10:08:33.810Z,100.00
2023-05-03T10:11:39.254Z,100.00
2023-05-03T10:14:48.954Z,100.00
2023-05-03T10:17:57.169Z,100.00
2023-05-03T10:21:07.770Z,100.00
2023-05-03T10:24:16.501Z,100.00
2023-05-03T10:27:21.936Z,100.00
2023-05-03T10:30:33.119Z,100.00
2023-05-03T10:33:38.857Z,95.05
2023-05-03T10:36:49.752Z,97.11
2023-05-03T10:39:58.512Z,83.68
2023-05-03T10:43:05.072Z,82.13
2023-05-03T10:46:32.807Z,88.31
2023-05-03T10:49:38.428Z,89.78
2023-05-03T10:52:44.263Z,91.50
2023-05-03T10:56:13.465Z,94.14
2023-05-03T10:59:19.532Z,90.89
2023-05-03T11:02:34.266Z,91.76
2023-05-03T11:05:40.438Z,86.56
2023-05-03T11:08:48.990Z,79.77
2023-05-03T11:11:54.672Z,79.51
2023-05-03T11:15:00.264Z,76.60
2023-05-03T11:18:08.029Z,78.29
2023-05-03T11:21:14.165Z,83.96
2023-05-03T11:24:19.812Z,72.27
2023-05-03T11:27:25.625Z,75.67
2023-05-03T11:30:35.180Z,73.38
2023-05-03T11:33:41.762Z,74.22
2023-05-03T11:36:47.019Z,81.97
2023-05-03T11:39:52.357Z,89.90
2023-05-03T11:43:01.165Z,82.59
2023-05-03T11:46:06.734Z,75.96
2023-05-03T11:49:19.242Z,68.58
2023-05-03T11:52:27.889Z,73.18
2023-05-03T11:55:33.703Z,73.36
2023-05-03T11:58:56.642Z,71.19
2023-05-03T12:02:04.996Z,80.97
2023-05-03T12:05:11.467Z,77.20
2023-05-03T12:08:21.079Z,70.73
2023-05-03T12:11:30.340Z,77.75
2023-05-03T12:15:11.295Z,74.76
2023-05-03T12:24:34.640Z,70.70
2023-05-03T12:27:40.857Z,78.28
2023-05-03T12:30:46.909Z,72.69
2023-05-03T12:37:04.786Z,70.62
2023-05-03T12:43:24.670Z,69.39
2023-05-03T12:46:34.777Z,70.56
2023-05-03T12:49:45.658Z,66.11
2023-05-03T12:52:53.092Z,58.22
2023-05-03T12:55:58.970Z,59.55
2023-05-03T12:59:31.644Z,58.63
2023-05-03T13:05:40.230Z,63.41
2023-05-03T13:08:49.986Z,64.73
2023-05-03T13:11:56.902Z,62.49
2023-05-03T13:15:04.439Z,59.91
2023-05-03T13:18:10.459Z,60.31
2023-05-03T13:21:17.105Z,59.34
2023-05-03T13:24:22.313Z,64.26
2023-05-03T13:27:28.151Z,65.92
2023-05-03T13:30:34.679Z,65.46
2023-05-03T13:33:40.897Z,70.01
2023-05-03T13:36:46.046Z,69.42
2023-05-03T13:39:51.809Z,55.30
2023-05-03T13:42:57.216Z,60.08
2023-05-03T13:46:03.164Z,59.81
2023-05-03T13:49:08.623Z,58.26
2023-05-03T13:52:14.032Z,55.32
2023-05-03T13:55:19.133Z,56.49
2023-05-03T13:58:24.448Z,52.75
2023-05-03T14:01:30.481Z,56.63
2023-05-03T14:04:35.838Z,56.41
2023-05-03T14:07:41.329Z,56.24
2023-05-03T14:10:47.088Z,51.63
2023-05-03T14:13:57.033Z,51.34
2023-05-03T14:17:03.917Z,51.56
2023-05-03T14:20:12.782Z,52.58
2023-05-03T14:23:18.139Z,52.82
2023-05-03T14:26:24.211Z,51.77
2023-05-03T14:29:29.527Z,50.56
2023-05-03T14:32:35.089Z,51.83
2023-05-03T14:35:41.067Z,52.85
2023-05-03T14:38:46.329Z,54.73
2023-05-03T14:41:51.710Z,53.21
2023-05-03T14:44:57.087Z,54.78
2023-05-03T14:48:03.953Z,58.73
2023-05-03T14:51:09.246Z,55.57
2023-05-03T14:54:14.627Z,55.07
2023-05-03T14:57:20.103Z,53.60
2023-05-03T15:00:26.137Z,55.06
2023-05-03T15:03:31.862Z,53.62
2023-05-03T15:06:39.388Z,53.44
2023-05-03T15:09:45.153Z,54.29
2023-05-03T15:12:50.336Z,53.73
2023-05-03T15:15:55.864Z,55.11
2023-05-03T15:19:02.194Z,56.37
2023-05-03T15:22:07.864Z,58.43
2023-05-03T15:25:13.191Z,57.98
2023-05-03T15:28:18.858Z,67.04
2023-05-03T15:31:24.063Z,68.30
2023-05-03T15:34:30.087Z,74.95
2023-05-03T15:37:37.641Z,82.79
2023-05-03T15:40:43.305Z,83.25
2023-05-03T15:43:48.480Z,88.09
2023-05-03T15:46:53.942Z,80.90
2023-05-03T15:49:59.170Z,82.21
2023-05-03T15:53:04.571Z,78.39
2023-05-03T15:56:09.679Z,74.94
2023-05-03T15:59:15.768Z,86.91
2023-05-03T16:02:21.808Z,100.00
2023-05-03T16:05:27.671Z,91.63
2023-05-03T16:08:33.083Z,83.06
2023-05-03T16:11:38.968Z,82.41
2023-05-03T16:14:44.696Z,85.01
2023-05-03T16:17:50.350Z,91.10
2023-05-03T16:20:55.835Z,89.13
2023-05-03T16:24:01.299Z,83.97
2023-05-03T16:27:07.722Z,85.03
2023-05-03T16:30:13.982Z,78.79
2023-05-03T16:33:20.594Z,78.93
2023-05-03T16:36:26.489Z,79.53
2023-05-03T16:39:32.808Z,79.22
2023-05-03T16:42:39.010Z,90.12
2023-05-03T16:45:44.273Z,87.52
2023-05-03T16:48:50.605Z,90.12
2023-05-03T16:51:56.820Z,91.69
2023-05-03T16:55:01.954Z,97.85
2023-05-03T16:58:08.338Z,89.05
2023-05-03T17:01:14.698Z,80.32
2023-05-03T17:04:20.304Z,86.53
2023-05-03T17:07:26.224Z,85.38
2023-05-03T17:10:31.817Z,83.80
2023-05-03T17:13:37.660Z,86.60
2023-05-03T17:16:44.551Z,82.22
2023-05-03T17:19:50.287Z,84.36
2023-05-03T17:22:55.625Z,90.61
2023-05-03T17:26:00.620Z,97.11
2023-05-03T17:29:07.890Z,96.92
2023-05-03T17:32:13.415Z,94.94
2023-05-03T17:35:19.178Z,93.88
2023-05-03T17:38:24.352Z,96.09
2023-05-03T17:41:30.377Z,94.54
2023-05-03T17:44:36.039Z,95.22
2023-05-03T17:47:42.135Z,97.18
2023-05-03T17:50:47.402Z,95.03
2023-05-03T17:53:52.634Z,98.20
2023-05-03T17:56:58.188Z,100.00
2023-05-03T18:00:05.554Z,100.00
2023-05-03T18:03:13.543Z,100.00
2023-05-03T18:06:19.166Z,100.00
2023-05-03T18:09:26.893Z,100.00
2023-05-03T18:12:32.254Z,100.00
2023-05-03T18:15:41.479Z,100.00
2023-05-03T18:18:47.540Z,100.00
2023-05-03T18:21:53.095Z,100.00
2023-05-03T18:25:02.199Z,100.00
2023-05-03T18:28:08.733Z,100.00
2023-05-03T18:31:14.363Z,100.00
2023-05-03T18:34:19.842Z,100.00
2023-05-03T18:37:25.453Z,100.00
2023-05-03T18:40:31.483Z,100.00
2023-05-03T18:43:38.921Z,100.00
2023-05-03T18:46:45.759Z,100.00
2023-05-03T18:49:53.764Z,100.00
2023-05-03T18:53:00.166Z,100.00
2023-05-03T18:56:06.556Z,100.00
2023-05-03T18:59:12.709Z,100.00
2023-05-03T19:02:19.134Z,100.00
2023-05-03T19:05:26.248Z,100.00
2023-05-03T19:08:33.069Z,100.00
2023-05-03T19:11:43.908Z,100.00
2023-05-03T19:14:50.451Z,100.00
2023-05-03T19:17:57.035Z,100.00
2023-05-03T19:21:03.304Z,100.00
2023-05-03T19:24:15.119Z,100.00
2023-05-03T19:27:23.209Z,100.00
2023-05-03T19:30:29.627Z,100.00
2023-05-03T19:33:36.037Z,100.00
2023-05-03T19:36:44.193Z,100.00
2023-05-03T19:39:53.810Z,100.00
2023-05-03T19:43:01.721Z,100.00
2023-05-03T19:46:08.475Z,100.00
2023-05-03T19:49:16.330Z,100.00
2023-05-03T19:52:21.864Z,100.00
2023-05-03T19:55:27.417Z,100.00
2023-05-03T19:58:33.353Z,100.00
2023-05-03T20:01:38.764Z,100.00
2023-05-03T20:04:44.365Z,100.00
2023-05-03T20:07:52.838Z,100.00
2023-05-03T20:10:59.155Z,100.00
2023-05-03T20:14:04.793Z,100.00
2023-05-03T20:17:10.447Z,100.00
2023-05-03T20:20:16.656Z,100.00
2023-05-03T20:23:22.799Z,100.00
2023-05-03T20:26:28.349Z,100.00
2023-05-03T20:29:34.404Z,100.00
2023-05-03T20:32:40.258Z,100.00
2023-05-03T20:35:46.411Z,100.00
2023-05-03T20:38:52.522Z,100.00
2023-05-03T20:41:59.249Z,100.00
2023-05-03T20:45:05.812Z,100.00
2023-05-03T20:48:11.340Z,100.00
2023-05-03T20:51:17.474Z,100.00
2023-05-03T20:54:23.261Z,100.00
2023-05-03T20:57:28.911Z,100.00
2023-05-03T21:00:34.317Z,100.00
2023-05-03T21:03:39.754Z,100.00
2023-05-03T21:06:45.463Z,100.00
2023-05-03T21:09:51.149Z,100.00
2023-05-03T21:12:56.974Z,100.00
2023-05-03T21:16:02.987Z,100.00
2023-05-03T21:19:08.707Z,100.00
2023-05-03T21:22:14.105Z,100.00
2023-05-03T21:25:20.018Z,100.00
2023-05-03T21:28:25.339Z,100.00
2023-05-03T21:31:31.010Z,100.00
2023-05-03T21:34:36.802Z,100.00
2023-05-03T21:37:43.902Z,100.00
2023-05-03T21:40:49.430Z,100.00
2023-05-03T21:43:55.038Z,100.00
2023-05-03T21:47:02.410Z,100.00
2023-05-03T21:50:08.563Z,100.00
2023-05-03T21:53:14.443Z,100.00
2023-05-03T21:56:19.990Z,100.00
2023-05-03T21:59:25.629Z,100.00
2023-05-03T22:02:31.022Z,100.00
2023-05-03T22:05:39.867Z,100.00
2023-05-03T22:08:45.161Z,100.00
2023-05-03T22:11:51.060Z,100.00
2023-05-03T22:14:56.933Z,100.00
2023-05-03T22:18:02.855Z,100.00
2023-05-03T22:21:08.454Z,100.00
2023-05-03T22:24:14.113Z,100.00
2023-05-03T22:27:19.616Z,100.00
2023-05-03T22:30:25.037Z,100.00
2023-05-03T22:33:31.065Z,100.00
2023-05-03T22:36:37.334Z,100.00
2023-05-03T22:39:43.084Z,100.00
2023-05-03T22:42:48.892Z,100.00
2023-05-03T22:45:54.579Z,100.00
2023-05-03T22:49:00.329Z,100.00
2023-05-03T22:52:06.003Z,100.00
2023-05-03T22:55:11.711Z,100.00
2023-05-03T22:58:17.266Z,100.00
2023-05-03T23:01:22.830Z,100.00
2023-05-03T23:04:28.678Z,100.00
2023-05-03T23:07:34.433Z,100.00
2023-05-03T23:10:40.312Z,100.00
2023-05-03T23:13:45.953Z,100.00
2023-05-03T23:16:51.886Z,100.00
2023-05-03T23:19:57.957Z,100.00
2023-05-03T23:23:03.493Z,100.00
2023-05-03T23:26:09.634Z,100.00
2023-05-03T23:29:16.119Z,100.00
2023-05-03T23:32:21.981Z,100.00
2023-05-03T23:35:27.903Z,100.00
2023-05-03T23:38:33.800Z,100.00
2023-05-03T23:41:39.320Z,100.00
2023-05-03T23:44:54.357Z,100.00
2023-05-03T23:48:01.279Z,100.00
2023-05-03T23:51:06.611Z,100.00
2023-05-03T23:54:11.932Z,100.00
2023-05-03T23:57:17.555Z,100.00
